createdAt,value
2018-12-06T00:01:14.886Z,101674.02
2018-12-06T00:03:42.502Z,101669.92
2018-12-06T00:06:10.095Z,101668.38
2018-12-06T00:08:37.707Z,101669.37
2018-12-06T00:11:05.295Z,101662.06
2018-12-06T00:13:32.832Z,101662.86
2018-12-06T00:16:00.440Z,101659.38
2018-12-06T00:18:28.053Z,101654.35
2018-12-06T00:20:55.928Z,101656.56
2018-12-06T00:23:23.502Z,101653.13
2018-12-06T00:25:51.175Z,101652.61
2018-12-06T00:28:19.095Z,101648.29
2018-12-06T00:30:46.692Z,101640.70
2018-12-06T00:33:14.297Z,101649.03
2018-12-06T00:35:41.910Z,101638.39
2018-12-06T00:38:09.453Z,101646.20
2018-12-06T00:40:37.048Z,101642.56
2018-12-06T00:43:04.643Z,101647.47
2018-12-06T00:45:32.556Z,101643.34
2018-12-06T00:48:00.395Z,101642.49
2018-12-06T00:50:28.002Z,101637.88
2018-12-06T00:52:55.545Z,101634.30
2018-12-06T00:55:23.279Z,101632.80
2018-12-06T00:57:51.165Z,101637.13
2018-12-06T01:00:18.867Z,101629.48
2018-12-06T01:02:46.426Z,101623.84
2018-12-06T01:05:14.052Z,101630.91
2018-12-06T01:07:41.595Z,101631.28
2018-12-06T01:10:09.315Z,101625.73
2018-12-06T01:12:37.060Z,101624.31
2018-12-06T01:15:05.253Z,101625.64
2018-12-06T01:17:32.894Z,101623.52
2018-12-06T01:20:00.498Z,101613.86
2018-12-06T01:22:28.091Z,101619.42
2018-12-06T01:24:55.677Z,101609.83
2018-12-06T01:27:23.297Z,101608.65
2018-12-06T01:29:50.841Z,101603.03
2018-12-06T01:32:18.439Z,101596.63
2018-12-06T01:34:46.122Z,101594.22
2018-12-06T01:37:13.694Z,101590.00
2018-12-06T01:39:41.266Z,101586.79
2018-12-06T01:42:08.829Z,101583.20
2018-12-06T01:44:36.432Z,101580.06
2018-12-06T01:47:04.060Z,101584.92
2018-12-06T01:49:31.858Z,101582.90
2018-12-06T01:51:59.459Z,101578.58
2018-12-06T01:54:27.026Z,101566.78
2018-12-06T01:56:54.606Z,101572.06
2018-12-06T01:59:22.231Z,101565.47
2018-12-06T02:01:49.859Z,101575.54
2018-12-06T02:04:17.441Z,101573.75
2018-12-06T02:06:45.304Z,101570.30
2018-12-06T02:09:12.887Z,101568.84
2018-12-06T02:11:40.649Z,101567.05
2018-12-06T02:14:08.317Z,101568.38
2018-12-06T02:16:35.912Z,101565.09
2018-12-06T02:19:03.452Z,101567.62
2018-12-06T02:21:31.008Z,101565.03
2018-12-06T02:23:58.589Z,101566.85
2018-12-06T02:26:26.182Z,101559.92
2018-12-06T02:28:53.744Z,101558.73
2018-12-06T02:31:21.320Z,101548.56
2018-12-06T02:33:49.205Z,101548.80
2018-12-06T02:36:17.043Z,101541.13
2018-12-06T02:38:44.688Z,101537.31
2018-12-06T02:41:12.279Z,101534.67
2018-12-06T02:43:40.152Z,101530.45
2018-12-06T02:46:07.767Z,101516.97
2018-12-06T02:48:35.416Z,101516.50
2018-12-06T02:51:02.989Z,101512.81
2018-12-06T02:53:30.915Z,101505.61
2018-12-06T02:55:58.468Z,101490.43
2018-12-06T02:58:26.054Z,101482.55
2018-12-06T03:00:53.631Z,101479.17
2018-12-06T03:03:21.189Z,101468.39
2018-12-06T03:05:48.763Z,101466.23
2018-12-06T03:08:16.361Z,101458.13
2018-12-06T03:10:43.914Z,101445.38
2018-12-06T03:13:11.553Z,101444.42
2018-12-06T03:15:39.095Z,101435.22
2018-12-06T03:18:06.763Z,101425.59
2018-12-06T03:20:34.405Z,101424.53
2018-12-06T03:23:01.999Z,101422.96
2018-12-06T03:25:29.568Z,101414.09
2018-12-06T03:27:57.178Z,101412.50
2018-12-06T03:30:24.743Z,101405.12
2018-12-06T03:32:52.387Z,101404.02
2018-12-06T03:35:20.281Z,101401.27
2018-12-06T03:37:47.851Z,101402.58
2018-12-06T03:40:15.390Z,101398.38
2018-12-06T03:42:43.015Z,101388.48
2018-12-06T03:45:10.785Z,101390.99
2018-12-06T03:47:38.368Z,101379.83
2018-12-06T03:50:06.053Z,101369.53
2018-12-06T03:52:33.919Z,101362.84
2018-12-06T03:55:02.191Z,101353.27
2018-12-06T03:57:29.750Z,101350.73
2018-12-06T03:59:57.311Z,101349.05
2018-12-06T04:02:24.926Z,101348.25
2018-12-06T04:04:52.527Z,101337.33
2018-12-06T04:07:20.388Z,101334.91
2018-12-06T04:09:48.275Z,101334.70
2018-12-06T04:12:15.881Z,101325.47
2018-12-06T04:14:43.428Z,101324.41
2018-12-06T04:17:11.049Z,101316.24
2018-12-06T04:19:38.625Z,101316.83
2018-12-06T04:22:06.188Z,101318.52
2018-12-06T04:24:33.760Z,101314.20
2018-12-06T04:27:01.387Z,101312.07
2018-12-06T04:29:28.986Z,101299.95
2018-12-06T04:31:56.580Z,101299.73
2018-12-06T04:34:24.159Z,101298.16
2018-12-06T04:36:51.794Z,101292.88
2018-12-06T04:39:19.387Z,101289.30
2018-12-06T04:41:47.133Z,101291.23
2018-12-06T04:44:15.137Z,101284.16
2018-12-06T04:46:42.755Z,101281.27
2018-12-06T04:49:10.360Z,101273.83
2018-12-06T04:51:38.976Z,101275.66
2018-12-06T04:54:06.568Z,101269.28
2018-12-06T04:56:34.151Z,101271.19
2018-12-06T04:59:01.725Z,101276.24
2018-12-06T05:01:29.294Z,101271.56
2018-12-06T05:03:57.000Z,101281.77
2018-12-06T05:06:24.935Z,101271.70
2018-12-06T05:08:52.555Z,101265.58
2018-12-06T05:11:20.167Z,101266.05
2018-12-06T05:13:47.777Z,101265.80
2018-12-06T05:16:15.334Z,101269.28
2018-12-06T05:18:42.925Z,101271.69
2018-12-06T05:21:10.548Z,101274.59
2018-12-06T05:23:38.235Z,101277.10
2018-12-06T05:26:05.854Z,101277.80
2018-12-06T05:28:33.523Z,101279.12
2018-12-06T05:31:01.156Z,101269.30
2018-12-06T05:33:28.798Z,101270.25
2018-12-06T05:35:56.353Z,101270.97
2018-12-06T05:38:23.934Z,101271.34
2018-12-06T05:40:51.830Z,101276.62
2018-12-06T05:43:19.470Z,101285.38
2018-12-06T05:45:47.113Z,101279.26
2018-12-06T05:48:15.188Z,101276.62
2018-12-06T05:50:42.785Z,101277.83
2018-12-06T05:53:10.406Z,101276.02
2018-12-06T05:55:38.074Z,101279.38
2018-12-06T05:58:05.712Z,101273.36
2018-12-06T06:00:33.448Z,101266.91
2018-12-06T06:03:01.062Z,101271.45
2018-12-06T06:05:28.653Z,101272.30
2018-12-06T06:07:56.282Z,101271.32
2018-12-06T06:10:23.844Z,101277.46
2018-12-06T06:12:51.453Z,101274.09
2018-12-06T06:15:19.025Z,101275.16
2018-12-06T06:17:46.621Z,101273.38
2018-12-06T06:20:14.201Z,101277.44
2018-12-06T06:22:41.915Z,101275.27
2018-12-06T06:25:09.582Z,101271.42
2018-12-06T06:27:37.193Z,101267.70
2018-12-06T06:30:06.218Z,101277.07
2018-12-06T06:32:33.791Z,101259.31
2018-12-06T06:35:01.437Z,101256.18
2018-12-06T06:37:29.114Z,101249.48
2018-12-06T06:39:56.707Z,101254.13
2018-12-06T06:42:24.327Z,101259.66
2018-12-06T06:44:51.881Z,101259.76
2018-12-06T06:47:19.482Z,101260.27
2018-12-06T06:49:47.046Z,101254.97
2018-12-06T06:52:14.642Z,101248.13
2018-12-06T06:54:42.522Z,101249.70
2018-12-06T06:57:10.316Z,101254.63
2018-12-06T06:59:38.250Z,101252.67
2018-12-06T07:02:06.187Z,101255.92
2018-12-06T07:04:33.826Z,101248.23
2018-12-06T07:07:01.436Z,101257.49
2018-12-06T07:09:29.029Z,101250.77
2018-12-06T07:11:56.754Z,101248.72
2018-12-06T07:14:24.339Z,101243.78
2018-12-06T07:16:52.049Z,101236.70
2018-12-06T07:19:19.643Z,101237.53
2018-12-06T07:21:47.311Z,101239.14
2018-12-06T07:24:14.932Z,101246.45
2018-12-06T07:26:42.522Z,101231.56
2018-12-06T07:29:10.186Z,101223.01
2018-12-06T07:31:37.807Z,101213.77
2018-12-06T07:34:05.388Z,101217.61
2018-12-06T07:36:32.982Z,101211.38
2018-12-06T07:39:00.626Z,101212.45
2018-12-06T07:41:28.202Z,101208.34
2018-12-06T07:43:55.804Z,101203.06
2018-12-06T07:46:23.388Z,101196.09
2018-12-06T07:48:51.005Z,101186.73
2018-12-06T07:51:18.570Z,101188.66
2018-12-06T07:53:46.529Z,101176.55
2018-12-06T07:56:14.131Z,101167.64
2018-12-06T07:58:41.733Z,101153.72
2018-12-06T08:01:09.688Z,101146.12
2018-12-06T08:03:37.338Z,101140.23
2018-12-06T08:06:05.091Z,101133.42
2018-12-06T08:08:32.679Z,101139.99
2018-12-06T08:11:00.293Z,101147.64
2018-12-06T08:13:27.934Z,101170.49
2018-12-06T08:15:55.512Z,101180.09
2018-12-06T08:18:23.106Z,101179.79
2018-12-06T08:20:50.654Z,101172.10
2018-12-06T08:23:18.315Z,101164.09
2018-12-06T08:25:45.939Z,101153.48
2018-12-06T08:28:13.589Z,101156.92
2018-12-06T08:30:42.132Z,101171.22
2018-12-06T08:33:10.274Z,101185.55
2018-12-06T08:35:37.942Z,101194.28
2018-12-06T08:38:05.721Z,101191.28
2018-12-06T08:40:33.369Z,101185.00
2018-12-06T08:43:01.007Z,101187.92
2018-12-06T08:45:28.665Z,101192.33
2018-12-06T08:47:56.235Z,101211.63
2018-12-06T08:50:23.818Z,101221.36
2018-12-06T08:52:51.461Z,101225.80
2018-12-06T08:55:19.053Z,101231.81
2018-12-06T08:57:46.646Z,101230.57
2018-12-06T09:00:14.218Z,101238.11
2018-12-06T09:02:42.041Z,101243.75
2018-12-06T09:05:09.662Z,101241.62
2018-12-06T09:07:37.223Z,101246.87
2018-12-06T09:10:06.215Z,101252.20
2018-12-06T09:12:33.848Z,101252.84
2018-12-06T09:15:01.562Z,101248.28
2018-12-06T09:17:29.121Z,101246.35
2018-12-06T09:19:56.703Z,101252.44
2018-12-06T09:22:24.524Z,101247.31
2018-12-06T09:24:52.295Z,101252.72
2018-12-06T09:27:19.902Z,101258.49
2018-12-06T09:29:47.487Z,101257.17
2018-12-06T09:32:15.092Z,101255.01
2018-12-06T09:34:42.690Z,101257.89
2018-12-06T09:37:10.291Z,101253.20
2018-12-06T09:39:37.893Z,101247.44
2018-12-06T09:42:05.553Z,101245.99
2018-12-06T09:44:33.142Z,101246.67
2018-12-06T09:47:00.975Z,101243.06
2018-12-06T09:49:28.605Z,101253.64
2018-12-06T09:51:56.536Z,101245.38
2018-12-06T09:54:24.102Z,101239.23
2018-12-06T09:56:51.735Z,101240.09
2018-12-06T09:59:19.308Z,101238.52
2018-12-06T10:01:46.940Z,101240.92
2018-12-06T10:04:14.715Z,101239.80
2018-12-06T10:06:42.343Z,101235.81
2018-12-06T10:09:09.900Z,101236.14
2018-12-06T10:11:37.477Z,101235.28
2018-12-06T10:14:05.052Z,101227.88
2018-12-06T10:16:32.682Z,101233.61
2018-12-06T10:19:00.401Z,101216.77
2018-12-06T10:21:28.006Z,101211.55
2018-12-06T10:23:55.564Z,101217.91
2018-12-06T10:26:23.162Z,101211.47
2018-12-06T10:28:50.735Z,101210.63
2018-12-06T10:31:18.448Z,101208.19
2018-12-06T10:33:45.992Z,101213.48
2018-12-06T10:36:13.614Z,101204.75
2018-12-06T10:38:41.202Z,101200.17
2018-12-06T10:41:08.803Z,101196.81
2018-12-06T10:43:36.406Z,101186.11
2018-12-06T10:46:04.174Z,101189.34
2018-12-06T10:48:31.768Z,101185.38
2018-12-06T10:51:11.337Z,101185.92
2018-12-06T10:53:38.971Z,101173.18
2018-12-06T10:56:06.575Z,101168.95
2018-12-06T10:58:34.127Z,101161.80
2018-12-06T11:01:08.457Z,101164.61
2018-12-06T11:03:38.346Z,101164.69
2018-12-06T11:06:05.969Z,101150.83
2018-12-06T11:08:33.526Z,101143.89
2018-12-06T11:11:01.102Z,101137.83
2018-12-06T11:13:28.675Z,101145.09
2018-12-06T11:15:56.314Z,101137.45
2018-12-06T11:18:24.196Z,101130.55
2018-12-06T11:21:18.941Z,101132.18
2018-12-06T11:23:47.726Z,101123.00
2018-12-06T11:26:15.465Z,101120.12
2018-12-06T11:28:43.018Z,101110.92
2018-12-06T11:31:10.867Z,101110.78
2018-12-06T11:33:38.426Z,101126.60
2018-12-06T11:36:05.998Z,101125.30
2018-12-06T11:38:33.660Z,101138.80
2018-12-06T11:41:01.313Z,101138.19
2018-12-06T11:43:28.976Z,101142.39
2018-12-06T11:45:56.892Z,101128.56
2018-12-06T11:48:27.016Z,101130.73
2018-12-06T11:50:54.217Z,101124.69
2018-12-06T11:53:22.072Z,101123.36
2018-12-06T11:55:49.659Z,101110.71
2018-12-06T11:58:17.243Z,101113.44
2018-12-06T12:00:44.867Z,101112.17
2018-12-06T12:03:12.427Z,101114.42
2018-12-06T12:05:40.068Z,101108.15
2018-12-06T12:08:07.664Z,101112.75
2018-12-06T12:10:35.624Z,101118.19
2018-12-06T12:13:03.273Z,101122.64
2018-12-06T12:15:31.369Z,101119.69
2018-12-06T12:17:59.016Z,101120.97
2018-12-06T12:20:26.699Z,101119.42
2018-12-06T12:22:54.448Z,101114.61
2018-12-06T12:25:22.040Z,101115.72
2018-12-06T12:27:49.588Z,101111.61
2018-12-06T12:30:17.180Z,101121.45
2018-12-06T12:32:44.794Z,101117.48
2018-12-06T12:35:12.372Z,101116.16
2018-12-06T12:37:39.929Z,101116.51
2018-12-06T12:40:09.415Z,101113.16
2018-12-06T12:42:37.295Z,101115.80
2018-12-06T12:45:06.226Z,101121.10
2018-12-06T12:47:34.059Z,101123.40
2018-12-06T12:50:01.698Z,101121.94
2018-12-06T12:52:29.350Z,101114.83
2018-12-06T12:54:56.938Z,101131.30
2018-12-06T12:57:24.504Z,101132.53
2018-12-06T12:59:52.141Z,101135.59
2018-12-06T13:02:19.730Z,101125.70
2018-12-06T13:04:47.374Z,101114.66
2018-12-06T13:07:15.052Z,101094.37
2018-12-06T13:09:42.695Z,101099.95
2018-12-06T13:12:10.379Z,101106.88
2018-12-06T13:14:37.998Z,101101.28
2018-12-06T13:17:05.611Z,101090.67
2018-12-06T13:19:33.192Z,101077.78
2018-12-06T13:22:00.993Z,101069.96
2018-12-06T13:24:28.599Z,101065.93
2018-12-06T13:26:56.250Z,101060.53
2018-12-06T13:29:23.888Z,101065.27
2018-12-06T13:31:51.456Z,101065.80
2018-12-06T13:34:19.042Z,101069.06
2018-12-06T13:36:46.632Z,101072.69
2018-12-06T13:39:14.219Z,101067.60
2018-12-06T13:41:41.799Z,101068.27
2018-12-06T13:44:09.444Z,101072.73
2018-12-06T13:46:37.569Z,101070.25
2018-12-06T13:49:05.167Z,101063.63
2018-12-06T13:51:33.286Z,101054.88
2018-12-06T13:54:01.059Z,101048.74
2018-12-06T13:56:28.668Z,101053.86
2018-12-06T13:58:56.260Z,101049.19
2018-12-06T14:01:24.004Z,101034.66
2018-12-06T14:03:51.868Z,101025.23
2018-12-06T14:06:19.467Z,101017.28
2018-12-06T14:08:47.055Z,101012.03
2018-12-06T14:11:15.009Z,101019.98
2018-12-06T14:13:42.579Z,101020.81
2018-12-06T14:16:10.565Z,101021.30
2018-12-06T14:18:38.921Z,101017.84
2018-12-06T14:21:06.521Z,101009.94
2018-12-06T14:23:34.146Z,101018.87
2018-12-06T14:26:01.827Z,101027.87
2018-12-06T14:28:29.417Z,101031.77
2018-12-06T14:30:57.076Z,101044.05
2018-12-06T14:33:24.695Z,101040.21
2018-12-06T14:35:52.401Z,101038.35
2018-12-06T14:38:20.176Z,101036.58
2018-12-06T14:40:47.760Z,101048.10
2018-12-06T14:43:15.657Z,101041.66
2018-12-06T14:45:43.440Z,101043.72
2018-12-06T14:48:11.277Z,101047.87
2018-12-06T14:50:38.871Z,101047.37
2018-12-06T14:53:06.451Z,101051.67
2018-12-06T14:55:34.586Z,101054.19
2018-12-06T14:58:02.182Z,101054.67
2018-12-06T15:00:29.827Z,101062.62
2018-12-06T15:02:57.593Z,101061.30
2018-12-06T15:05:25.168Z,101057.67
2018-12-06T15:07:52.909Z,101059.22
2018-12-06T15:10:20.467Z,101052.09
2018-12-06T15:12:48.043Z,101053.60
2018-12-06T15:15:15.643Z,101062.47
2018-12-06T15:17:43.217Z,101058.77
2018-12-06T15:20:10.772Z,101066.09
2018-12-06T15:22:38.401Z,101072.34
2018-12-06T15:25:06.628Z,101061.73
2018-12-06T15:27:34.815Z,101068.01
2018-12-06T15:30:02.430Z,101079.86
2018-12-06T15:32:30.051Z,101094.87
2018-12-06T15:34:57.689Z,101100.10
2018-12-06T15:37:25.242Z,101108.36
2018-12-06T15:39:52.847Z,101105.50
2018-12-06T15:42:20.498Z,101102.23
2018-12-06T15:44:48.091Z,101091.91
2018-12-06T15:47:15.731Z,101089.25
2018-12-06T15:49:43.364Z,101080.63
2018-12-06T15:52:11.028Z,101081.25
2018-12-06T15:54:38.920Z,101073.09
2018-12-06T15:57:06.516Z,101075.25
2018-12-06T15:59:34.157Z,101076.17
2018-12-06T16:02:01.763Z,101083.99
2018-12-06T16:04:29.449Z,101085.81
2018-12-06T16:06:57.031Z,101081.40
2018-12-06T16:09:24.687Z,101085.73
2018-12-06T16:11:52.306Z,101076.45
2018-12-06T16:14:19.888Z,101076.80
2018-12-06T16:16:47.607Z,101077.10
2018-12-06T16:19:15.417Z,101068.85
2018-12-06T16:21:43.060Z,101058.03
2018-12-06T16:24:10.873Z,101041.59
2018-12-06T16:26:38.502Z,101041.46
2018-12-06T16:29:06.115Z,101046.77
2018-12-06T16:31:33.755Z,101050.73
2018-12-06T16:34:01.420Z,101062.53
2018-12-06T16:36:29.048Z,101048.27
2018-12-06T16:38:57.066Z,101048.13
2018-12-06T16:41:24.664Z,101045.48
2018-12-06T16:43:52.399Z,101037.75
2018-12-06T16:46:20.054Z,101036.19
2018-12-06T16:48:47.713Z,101035.14
2018-12-06T16:51:15.354Z,101039.77
2018-12-06T16:53:43.031Z,101036.33
2018-12-06T16:56:10.616Z,101036.68
2018-12-06T16:58:38.214Z,101036.41
2018-12-06T17:01:05.828Z,101033.31
2018-12-06T17:03:33.486Z,101019.91
2018-12-06T17:06:01.350Z,101025.12
2018-12-06T17:08:29.237Z,101020.86
2018-12-06T17:10:56.862Z,101038.28
2018-12-06T17:13:24.423Z,101043.41
2018-12-06T17:15:52.042Z,101027.81
2018-12-06T17:18:19.631Z,101027.81
2018-12-06T17:20:47.279Z,101029.84
2018-12-06T17:23:14.902Z,101029.21
2018-12-06T17:25:42.519Z,101027.25
2018-12-06T17:28:10.100Z,101017.48
2018-12-06T17:30:37.801Z,101014.38
2018-12-06T17:33:05.468Z,101019.34
2018-12-06T17:35:33.185Z,101026.67
2018-12-06T17:38:00.795Z,101036.96
2018-12-06T17:40:28.347Z,101032.98
2018-12-06T17:42:55.972Z,101036.96
2018-12-06T17:45:23.712Z,101033.19
2018-12-06T17:47:51.633Z,101043.17
2018-12-06T17:50:19.269Z,101052.98
2018-12-06T17:52:46.921Z,101050.75
2018-12-06T17:55:14.618Z,101051.06
2018-12-06T17:57:42.306Z,101043.80
2018-12-06T18:00:11.992Z,101042.12
2018-12-06T18:02:39.615Z,101046.18
2018-12-06T18:05:07.306Z,101043.87
2018-12-06T18:07:34.901Z,101037.63
2018-12-06T18:10:02.637Z,101032.31
2018-12-06T18:12:30.683Z,101036.02
2018-12-06T18:14:59.010Z,101046.63
2018-12-06T18:17:26.667Z,101034.02
2018-12-06T18:19:54.381Z,101035.70
2018-12-06T18:22:22.296Z,101030.39
2018-12-06T18:24:50.124Z,101024.95
2018-12-06T18:27:17.813Z,101022.49
2018-12-06T18:29:45.496Z,101031.95
2018-12-06T18:32:13.188Z,101032.66
2018-12-06T18:34:41.450Z,101025.88
2018-12-06T18:37:09.262Z,101018.58
2018-12-06T18:39:36.882Z,101009.00
2018-12-06T18:42:04.745Z,101020.31
2018-12-06T18:44:32.557Z,101018.98
2018-12-06T18:47:00.247Z,101017.83
2018-12-06T18:49:27.952Z,101015.03
2018-12-06T18:51:55.840Z,101023.89
2018-12-06T18:54:23.783Z,101018.41
2018-12-06T18:56:51.462Z,101014.28
2018-12-06T18:59:19.078Z,101010.70
2018-12-06T19:01:46.829Z,101014.16
2018-12-06T19:04:14.884Z,101002.91
2018-12-06T19:06:42.738Z,100996.96
2018-12-06T19:09:10.551Z,100995.00
2018-12-06T19:11:38.208Z,100996.00
2018-12-06T19:14:05.851Z,100996.84
2018-12-06T19:16:33.697Z,100983.42
2018-12-06T19:19:01.605Z,100983.07
2018-12-06T19:21:29.322Z,100988.11
2018-12-06T19:23:56.999Z,100981.82
2018-12-06T19:26:24.573Z,100980.64
2018-12-06T19:28:52.215Z,100978.48
2018-12-06T19:31:19.759Z,100982.85
2018-12-06T19:33:47.336Z,100988.17
2018-12-06T19:36:15.029Z,100988.19
2018-12-06T19:38:43.015Z,100991.19
2018-12-06T19:41:10.654Z,100988.19
2018-12-06T19:43:38.379Z,100980.77
2018-12-06T19:46:06.014Z,100977.92
2018-12-06T19:48:33.613Z,100980.92
2018-12-06T19:51:01.458Z,100986.58
2018-12-06T19:53:29.143Z,100982.96
2018-12-06T19:55:56.757Z,100978.48
2018-12-06T19:58:24.376Z,100976.52
2018-12-06T20:00:52.404Z,100968.70
2018-12-06T20:03:20.114Z,100962.74
2018-12-06T20:05:47.755Z,100954.63
2018-12-06T20:08:15.393Z,100948.48
2018-12-06T20:10:42.993Z,100948.13
2018-12-06T20:13:10.821Z,100943.36
2018-12-06T20:15:38.574Z,100940.17
2018-12-06T20:18:06.192Z,100943.17
2018-12-06T20:20:34.040Z,100937.07
2018-12-06T20:23:01.772Z,100937.91
2018-12-06T20:25:29.366Z,100934.27
2018-12-06T20:27:57.073Z,100938.06
2018-12-06T20:30:24.704Z,100938.27
2018-12-06T20:32:52.311Z,100941.41
2018-12-06T20:35:20.333Z,100939.30
2018-12-06T20:37:47.992Z,100941.27
2018-12-06T20:40:15.700Z,100946.97
2018-12-06T20:42:43.293Z,100946.14
2018-12-06T20:45:10.879Z,100948.30
2018-12-06T20:47:38.664Z,100948.64
2018-12-06T20:50:06.385Z,100932.02
2018-12-06T20:52:34.045Z,100932.85
2018-12-06T20:55:01.611Z,100947.12
2018-12-06T20:57:36.782Z,100939.98
2018-12-06T20:59:58.946Z,100944.17
2018-12-06T21:02:27.154Z,100945.98
2018-12-06T21:04:54.921Z,100931.38
2018-12-06T21:07:22.507Z,100928.72
2018-12-06T21:09:50.394Z,100923.40
2018-12-06T21:12:18.045Z,100927.20
2018-12-06T21:14:45.681Z,100928.37
2018-12-06T21:17:13.311Z,100922.22
2018-12-06T21:19:40.873Z,100919.22
2018-12-06T21:22:08.503Z,100919.56
2018-12-06T21:24:36.130Z,100908.44
2018-12-06T21:27:03.758Z,100908.44
2018-12-06T21:29:31.586Z,100906.96
2018-12-06T21:31:59.180Z,100907.12
2018-12-06T21:34:26.764Z,100915.28
2018-12-06T21:36:54.330Z,100914.14
2018-12-06T21:39:22.035Z,100908.48
2018-12-06T21:41:49.634Z,100908.49
2018-12-06T21:44:17.277Z,100906.67
2018-12-06T21:46:44.996Z,100905.00
2018-12-06T21:49:12.705Z,100908.49
2018-12-06T21:51:40.381Z,100907.50
2018-12-06T21:54:08.273Z,100900.70
2018-12-06T21:56:36.047Z,100902.69
2018-12-06T21:59:03.628Z,100898.55
2018-12-06T22:01:31.249Z,100890.42
2018-12-06T22:03:59.032Z,100889.73
2018-12-06T22:06:26.944Z,100881.42
2018-12-06T22:08:54.893Z,100883.93
2018-12-06T22:11:22.803Z,100878.30
2018-12-06T22:13:50.590Z,100876.64
2018-12-06T22:16:18.319Z,100876.98
2018-12-06T22:18:46.159Z,100883.28
2018-12-06T22:21:14.001Z,100884.98
2018-12-06T22:23:41.637Z,100875.00
2018-12-06T22:26:09.222Z,100876.70
2018-12-06T22:28:36.854Z,100872.56
2018-12-06T22:31:05.015Z,100875.38
2018-12-06T22:33:33.055Z,100870.06
2018-12-06T22:36:00.897Z,100865.08
2018-12-06T22:38:34.105Z,100869.41
2018-12-06T22:40:58.218Z,100861.46
2018-12-06T22:43:25.760Z,100857.63
2018-12-06T22:45:55.104Z,100850.48
2018-12-06T22:48:23.324Z,100843.99
2018-12-06T22:50:50.977Z,100835.86
2018-12-06T22:53:18.575Z,100838.86
2018-12-06T22:55:46.170Z,100847.52
2018-12-06T22:58:13.723Z,100844.85
2018-12-06T23:00:43.599Z,100840.70
2018-12-06T23:03:11.293Z,100848.19
2018-12-06T23:05:38.918Z,100837.73
2018-12-06T23:08:06.978Z,100830.90
2018-12-06T23:10:35.683Z,100832.07
2018-12-06T23:13:03.397Z,100827.92
2018-12-06T23:15:31.010Z,100814.64
2018-12-06T23:17:58.957Z,100814.30
2018-12-06T23:20:26.818Z,100801.34
2018-12-06T23:22:54.405Z,100797.67
2018-12-06T23:25:22.253Z,100791.03
2018-12-06T23:27:49.833Z,100800.67
2018-12-06T23:30:17.420Z,100804.66
2018-12-06T23:32:45.037Z,100808.99
2018-12-06T23:35:13.222Z,100806.66
2018-12-06T23:37:40.830Z,100807.50
2018-12-06T23:40:08.439Z,100809.50
2018-12-06T23:42:36.077Z,100808.34
2018-12-06T23:45:04.596Z,100810.33
2018-12-06T23:47:32.187Z,100804.52
2018-12-06T23:49:59.735Z,100796.02
2018-12-06T23:52:27.477Z,100796.36
2018-12-06T23:54:55.123Z,100791.05
2018-12-06T23:57:22.704Z,100796.70
2018-12-06T23:59:50.566Z,100790.39
